Time;durP1;ratioP1;P1;durP2;ratioP2;P2;SDS_P1;SDS_P2;PMS_P1;PMS_P2;Temp;Humidity;BMP_temperature;BMP_pressure;BME280_temperature;BME280_humidity;BME280_pressure;Samples;Min_cycle;Max_cycle;Signal;HPM_P1;HPM_P2
2023/11/29 05:46:13;;;;;;;6.70;3.70;;;;;;;4.42;100.00;97699.40;108368;1270;24236;-48
2023/11/29 05:48:40;;;;;;;8.00;4.20;;;;;;;4.41;100.00;97694.77;110034;1253;24420;-51
2023/11/29 05:51:07;;;;;;;9.00;5.10;;;;;;;4.41;100.00;97689.75;109056;1249;24138;-46
2023/11/29 05:53:33;;;;;;;12.20;6.10;;;;;;;4.43;100.00;97696.80;110428;1252;25439;-46
2023/11/29 05:56:00;;;;;;;11.70;6.20;;;;;;;4.43;100.00;97701.80;109160;1257;24246;-50
2023/11/29 05:58:27;;;;;;;13.70;6.60;;;;;;;4.45;100.00;97706.59;109608;1251;22455;-50
2023/11/29 06:00:54;;;;;;;15.50;7.60;;;;;;;4.45;100.00;97699.85;109603;1256;22559;-49
2023/11/29 06:03:22;;;;;;;14.90;7.50;;;;;;;4.45;100.00;97703.31;109736;1250;23292;-51
2023/11/29 06:05:49;;;;;;;14.70;7.10;;;;;;;4.44;100.00;97690.90;111985;1261;23224;-52
2023/11/29 06:08:15;;;;;;;11.70;6.10;;;;;;;4.44;100.00;97687.27;111274;1252;22530;-48
2023/11/29 06:10:43;;;;;;;9.80;5.70;;;;;;;4.44;100.00;97687.79;110865;1261;24204;-52
2023/11/29 06:13:10;;;;;;;8.50;4.80;;;;;;;4.45;100.00;97689.31;111557;1249;22508;-50
2023/11/29 06:15:37;;;;;;;8.80;4.80;;;;;;;4.47;100.00;97686.20;111903;1251;22524;-52
2023/11/29 06:18:05;;;;;;;5.60;4.10;;;;;;;4.48;100.00;97687.38;111516;1251;22513;-47
2023/11/29 06:20:32;;;;;;;8.60;5.30;;;;;;;4.50;100.00;97676.98;111844;1252;22377;-48
2023/11/29 06:22:58;;;;;;;8.70;4.80;;;;;;;4.51;100.00;97681.97;111710;1251;22382;-46
2023/11/29 06:25:25;;;;;;;7.00;5.10;;;;;;;4.52;100.00;97680.06;111658;1261;22377;-45
2023/11/29 06:27:52;;;;;;;12.40;7.30;;;;;;;4.54;100.00;97682.63;112563;1244;23664;-46
2023/11/29 06:30:20;;;;;;;12.10;7.50;;;;;;;4.57;100.00;97679.98;112566;1243;22354;-48
2023/11/29 06:32:47;;;;;;;10.80;6.60;;;;;;;4.58;100.00;97684.63;112577;1251;22375;-46
2023/11/29 06:35:14;;;;;;;14.60;8.00;;;;;;;4.59;100.00;97685.66;112191;1239;23145;-50
2023/11/29 06:37:42;;;;;;;16.80;9.20;;;;;;;4.60;100.00;97691.83;112193;1241;22927;-46
2023/11/29 06:40:18;;;;;;;20.00;10.20;;;;;;;4.63;100.00;97689.70;111853;1239;22432;-46
2023/11/29 06:42:47;;;;;;;20.90;10.50;;;;;;;4.65;100.00;97694.34;112441;1241;22555;-50
2023/11/29 06:45:40;;;;;;;17.50;10.00;;;;;;;4.67;100.00;97697.59;111761;1251;23013;-50
2023/11/29 06:48:21;;;;;;;13.20;8.10;;;;;;;4.70;100.00;97714.46;111029;1251;22487;-50
2023/11/29 06:50:50;;;;;;;11.30;6.30;;;;;;;4.70;100.00;97720.16;111974;1246;22428;-49
2023/11/29 06:53:19;;;;;;;9.70;4.30;;;;;;;4.69;100.00;97723.45;111783;1251;22497;-49
2023/11/29 06:55:55;;;;;;;6.70;4.20;;;;;;;4.66;100.00;97724.71;112130;1251;23836;-51
2023/11/29 06:58:56;;;;;;;8.00;3.40;;;;;;;4.63;100.00;97725.97;111446;1251;22539;-45
2023/11/29 07:01:24;;;;;;;6.90;4.80;;;;;;;4.62;100.00;97728.40;111154;1251;23173;-49
2023/11/29 07:08:42;;;;;;;5.00;4.00;;;;;;;4.66;100.00;97736.13;112667;1251;22408;-46
2023/11/29 07:15:42;;;;;;;31.20;26.10;;;;;;;4.71;100.00;97744.84;112540;1251;22669;-47
2023/11/29 07:18:29;;;;;;;44.20;35.60;;;;;;;4.71;100.00;97749.86;112044;1251;23429;-47
2023/11/29 07:21:13;;;;;;;;;;;;;;;4.71;100.00;97749.50;112216;1249;22417;-47
2023/11/29 07:23:52;;;;;;;18.00;12.20;;;;;;;4.69;100.00;97753.50;112488;1251;22499;-50
2023/11/29 07:26:54;;;;;;;7.80;4.60;;;;;;;4.66;100.00;97761.51;112167;1251;22945;-51
2023/11/29 07:29:40;;;;;;;3.00;2.50;;;;;;;4.64;100.00;97764.65;111861;1251;22419;-47
2023/11/29 07:32:24;;;;;;;3.20;1.80;;;;;;;4.60;100.00;97768.50;112485;1248;23298;-51
2023/11/29 07:35:03;;;;;;;3.30;2.50;;;;;;;4.54;100.00;97781.36;112607;1249;23536;-47
2023/11/29 07:37:30;;;;;;;5.70;4.10;;;;;;;4.48;100.00;97782.34;112261;1243;23044;-48
2023/11/29 07:39:56;;;;;;;5.30;4.00;;;;;;;4.42;100.00;97778.96;112693;1251;23705;-49
2023/11/29 07:42:23;;;;;;;5.30;3.40;;;;;;;4.37;100.00;97780.27;112620;1242;22408;-49
2023/11/29 07:44:51;;;;;;;2.60;1.90;;;;;;;4.31;100.00;97784.31;112273;1251;22225;-49
2023/11/29 07:47:18;;;;;;;3.60;2.20;;;;;;;4.27;100.00;97782.13;112624;1251;22727;-49
2023/11/29 07:49:45;;;;;;;5.10;2.60;;;;;;;4.23;100.00;97782.70;112678;1240;22360;-50
2023/11/29 07:52:12;;;;;;;2.90;2.10;;;;;;;4.22;100.00;97778.23;111580;1243;22600;-49
2023/11/29 07:54:45;;;;;;;4.30;2.40;;;;;;;4.21;100.00;97775.64;111988;1248;22595;-46
2023/11/29 07:57:15;;;;;;;2.10;1.80;;;;;;;4.22;100.00;97793.23;111767;1251;22483;-46
2023/11/29 07:59:44;;;;;;;2.10;1.70;;;;;;;4.21;100.00;97799.48;112683;1251;23156;-46
2023/11/29 08:02:11;;;;;;;2.10;1.90;;;;;;;4.19;100.00;97799.52;112100;1244;24190;-46
2023/11/29 08:04:38;;;;;;;3.30;2.20;;;;;;;4.18;100.00;97801.77;112345;1246;22548;-46
2023/11/29 08:07:05;;;;;;;2.90;2.30;;;;;;;4.18;100.00;97808.84;112707;1245;22513;-49
2023/11/29 08:09:32;;;;;;;3.40;2.20;;;;;;;4.21;100.00;97814.48;112751;1250;23196;-50
2023/11/29 08:11:59;;;;;;;5.00;3.50;;;;;;;4.24;100.00;97819.27;112357;1248;22409;-47
2023/11/29 08:14:28;;;;;;;4.70;3.60;;;;;;;4.27;100.00;97819.05;112550;1246;22379;-45
2023/11/29 08:16:56;;;;;;;5.80;4.20;;;;;;;4.30;100.00;97820.91;112291;1250;23009;-46
2023/11/29 08:19:22;;;;;;;5.40;4.40;;;;;;;4.33;100.00;97826.05;112581;1249;23166;-46
2023/11/29 08:22:01;;;;;;;5.50;4.30;;;;;;;4.38;100.00;97834.09;112271;1250;22975;-46
2023/11/29 08:24:53;;;;;;;4.40;3.60;;;;;;;4.40;100.00;97834.05;112541;1239;22365;-50
2023/11/29 08:28:09;;;;;;;7.80;4.70;;;;;;;4.43;100.00;97834.38;112563;1249;22406;-50
2023/11/29 08:31:31;;;;;;;5.30;4.20;;;;;;;4.47;100.00;97837.06;112357;1239;22699;-47
2023/11/29 08:34:47;;;;;;;5.00;3.20;;;;;;;4.51;100.00;97848.04;112547;1248;23096;-46
2023/11/29 08:41:19;;;;;;;6.50;4.80;;;;;;;4.55;100.00;97850.77;112540;1250;22494;-46
2023/11/29 08:43:53;;;;;;;4.10;3.10;;;;;;;4.54;100.00;97861.30;112526;1249;22230;-47
2023/11/29 08:46:55;;;;;;;6.20;4.60;;;;;;;4.50;100.00;97865.83;112595;1244;22377;-46
2023/11/29 08:49:29;;;;;;;6.30;4.60;;;;;;;4.51;100.00;97864.98;112719;1250;22473;-46
2023/11/29 08:51:56;;;;;;;7.00;4.70;;;;;;;4.53;100.00;97862.53;112745;1240;22373;-46
2023/11/29 08:54:24;;;;;;;4.70;3.00;;;;;;;4.57;100.00;97870.76;112588;1249;22278;-45
2023/11/29 08:56:51;;;;;;;4.20;2.50;;;;;;;4.61;100.00;97878.64;110791;1245;22526;-49
2023/11/29 08:59:25;;;;;;;2.10;1.80;;;;;;;4.60;100.00;97885.58;112742;1250;22370;-45
2023/11/29 09:01:54;;;;;;;2.80;2.50;;;;;;;4.56;100.00;97882.50;112333;1250;23382;-46
2023/11/29 09:04:21;;;;;;;3.00;2.30;;;;;;;4.53;100.00;97887.21;112435;1250;23108;-46
2023/11/29 09:06:51;;;;;;;3.40;3.00;;;;;;;4.51;100.00;97885.33;112512;1249;22418;-46
2023/11/29 09:09:22;;;;;;;;;;;;;;;4.49;100.00;97889.51;111563;1249;24393;-45
2023/11/29 09:11:51;;;;;;;6.10;4.60;;;;;;;4.49;100.00;97892.61;111948;1249;22600;-45
2023/11/29 09:14:19;;;;;;;10.10;7.00;;;;;;;4.47;100.00;97899.38;112423;1250;23539;-45
2023/11/29 09:16:47;;;;;;;8.90;6.30;;;;;;;4.45;100.00;97910.11;112497;1241;22250;-45
2023/11/29 09:20:10;;;;;;;6.80;5.20;;;;;;;4.40;100.00;97914.83;112203;1250;22415;-47
2023/11/29 09:23:01;;;;;;;9.60;5.80;;;;;;;4.35;100.00;97913.19;112239;1246;22389;-46
2023/11/29 09:30:11;;;;;;;7.10;5.10;;;;;;;4.16;100.00;97920.48;112272;1249;22160;-45
2023/11/29 09:33:41;;;;;;;6.70;5.00;;;;;;;4.07;100.00;97934.05;112454;1249;22217;-52
2023/11/29 09:36:20;;;;;;;7.30;5.80;;;;;;;4.02;100.00;97938.95;112553;1250;22437;-46
2023/11/29 09:38:47;;;;;;;9.70;6.20;;;;;;;3.98;100.00;97945.36;112567;1250;22383;-46
2023/11/29 09:41:14;;;;;;;9.90;6.70;;;;;;;3.96;100.00;97945.05;112452;1249;22421;-55
2023/11/29 09:43:41;;;;;;;8.20;5.90;;;;;;;3.93;100.00;97952.66;112598;1246;22437;-52
2023/11/29 09:46:08;;;;;;;7.40;6.00;;;;;;;3.91;100.00;97957.52;112348;1250;22838;-50
2023/11/29 09:48:35;;;;;;;11.00;6.90;;;;;;;3.89;100.00;97958.92;112690;1250;23034;-50
2023/11/29 09:51:02;;;;;;;10.60;6.00;;;;;;;3.89;100.00;97974.79;112268;1247;22452;-50
2023/11/29 09:53:30;;;;;;;10.60;6.40;;;;;;;3.89;100.00;97985.48;112772;1240;23158;-47
2023/11/29 09:55:57;;;;;;;10.60;6.90;;;;;;;3.88;100.00;97993.92;112724;1246;23609;-45
2023/11/29 09:58:24;;;;;;;10.50;7.10;;;;;;;3.86;100.00;98009.14;112394;1250;22706;-46
2023/11/29 10:00:50;;;;;;;13.10;8.50;;;;;;;3.82;100.00;98015.72;112721;1246;22350;-46
2023/11/29 10:03:18;;;;;;;11.80;7.00;;;;;;;3.77;100.00;98022.49;112344;1250;23223;-46
2023/11/29 10:05:46;;;;;;;10.00;6.90;;;;;;;3.70;100.00;98036.33;112034;1247;24149;-52
2023/11/29 10:08:22;;;;;;;8.00;6.20;;;;;;;3.64;100.00;98048.98;112493;1250;22412;-47
2023/11/29 10:10:50;;;;;;;6.80;4.80;;;;;;;3.56;100.00;98069.55;112641;1249;22387;-46
2023/11/29 10:13:17;;;;;;;7.60;4.70;;;;;;;3.52;100.00;98072.00;112725;1250;22706;-51
2023/11/29 10:15:47;;;;;;;8.40;5.90;;;;;;;3.45;100.00;98088.42;112634;1241;23279;-51
2023/11/29 10:18:15;;;;;;;6.70;5.60;;;;;;;3.37;100.00;98093.81;112523;1246;22344;-52
2023/11/29 10:20:45;;;;;;;6.80;4.90;;;;;;;3.29;100.00;98112.13;112388;1249;23133;-46
2023/11/29 10:23:26;;;;;;;5.30;4.20;;;;;;;3.21;100.00;98113.55;112561;1250;23332;-51
2023/11/29 10:25:54;;;;;;;8.20;5.50;;;;;;;3.14;100.00;98111.00;112473;1249;23708;-47
2023/11/29 10:28:20;;;;;;;6.50;5.10;;;;;;;3.08;100.00;98130.16;112140;1250;23073;-46
2023/11/29 10:30:47;;;;;;;6.60;5.50;;;;;;;3.01;100.00;98131.90;112577;1247;23337;-47
2023/11/29 10:33:21;;;;;;;7.10;5.70;;;;;;;2.97;100.00;98126.59;112449;1249;22271;-46
2023/11/29 10:35:48;;;;;;;7.00;5.60;;;;;;;2.97;100.00;98136.05;112395;1250;22453;-47
2023/11/29 10:38:15;;;;;;;8.40;5.50;;;;;;;2.99;100.00;98150.00;112588;1250;23365;-46
2023/11/29 10:40:43;;;;;;;7.80;6.50;;;;;;;2.98;100.00;98144.66;112395;1250;22423;-50
2023/11/29 10:43:22;;;;;;;9.50;6.80;;;;;;;2.98;100.00;98137.95;112296;1250;22523;-46
2023/11/29 10:45:50;;;;;;;7.80;6.00;;;;;;;3.03;100.00;98131.89;112637;1249;22417;-47
2023/11/29 10:48:23;;;;;;;7.30;5.50;;;;;;;3.14;100.00;98138.91;112476;1250;22865;-46
2023/11/29 10:50:51;;;;;;;7.30;6.40;;;;;;;3.25;100.00;98142.13;111154;1244;22473;-51
2023/11/29 10:53:18;;;;;;;7.60;5.40;;;;;;;3.30;100.00;98157.44;112456;1250;22442;-50
2023/11/29 10:55:48;;;;;;;7.00;5.50;;;;;;;3.27;100.00;98153.14;111970;1250;22414;-47
2023/11/29 10:58:31;;;;;;;6.10;5.40;;;;;;;3.21;100.00;98164.73;112377;1250;22431;-46
2023/11/29 11:00:58;;;;;;;10.00;6.20;;;;;;;3.13;100.00;98181.80;112749;1250;22574;-47
2023/11/29 11:03:46;;;;;;;7.90;6.10;;;;;;;3.05;100.00;98192.70;112727;1246;22839;-51
2023/11/29 11:06:26;;;;;;;7.50;6.00;;;;;;;2.94;100.00;98192.38;112474;1250;23232;-47
2023/11/29 11:08:59;;;;;;;8.50;6.80;;;;;;;2.85;100.00;98198.08;111966;1250;22434;-45
2023/11/29 11:11:43;;;;;;;8.60;6.80;;;;;;;2.80;100.00;98204.65;112200;1250;23119;-45
2023/11/29 11:14:27;;;;;;;9.40;7.80;;;;;;;2.77;100.00;98223.41;112336;1250;22212;-46
2023/11/29 11:17:23;;;;;;;8.20;7.00;;;;;;;2.73;100.00;98225.83;112591;1250;23182;-46
2023/11/29 11:19:52;;;;;;;8.00;6.50;;;;;;;2.70;100.00;98227.04;112504;1250;22674;-45
2023/11/29 11:22:22;;;;;;;9.40;7.40;;;;;;;2.70;100.00;98226.52;112645;1250;22787;-45
2023/11/29 11:25:05;;;;;;;9.30;7.50;;;;;;;2.69;100.00;98234.80;112653;1250;22370;-43
2023/11/29 11:27:34;;;;;;;11.00;8.20;;;;;;;2.68;100.00;98249.26;112590;1250;22829;-43
2023/11/29 11:30:13;;;;;;;13.60;9.00;;;;;;;2.65;100.00;98256.30;112616;1250;22718;-43
2023/11/29 11:32:40;;;;;;;13.40;7.70;;;;;;;2.61;100.00;98270.95;112655;1250;23078;-42
2023/11/29 11:35:19;;;;;;;11.10;8.60;;;;;;;2.58;100.00;98286.44;112708;1250;23409;-43
2023/11/29 11:37:53;;;;;;;12.40;8.60;;;;;;;2.55;100.00;98282.48;112711;1243;23124;-43
2023/11/29 11:40:20;;;;;;;13.40;8.80;;;;;;;2.51;100.00;98298.48;112313;1247;24599;-43
2023/11/29 11:42:47;;;;;;;12.00;9.00;;;;;;;2.48;100.00;98297.27;111557;1250;22313;-43
2023/11/29 11:45:16;;;;;;;10.60;7.40;;;;;;;2.45;100.00;98302.95;112833;1244;22354;-44
2023/11/29 11:47:43;;;;;;;12.00;9.40;;;;;;;2.42;100.00;98303.29;112732;1249;22266;-44
2023/11/29 11:50:11;;;;;;;13.90;8.80;;;;;;;2.40;100.00;98295.73;112804;1249;22409;-44
2023/11/29 11:52:38;;;;;;;12.90;9.80;;;;;;;2.37;100.00;98314.48;112746;1247;22234;-44
2023/11/29 11:55:10;;;;;;;17.00;10.50;;;;;;;2.35;100.00;98335.80;112778;1247;22280;-44
2023/11/29 11:57:39;;;;;;;20.10;12.40;;;;;;;2.34;100.00;98325.66;112740;1247;23433;-46
2023/11/29 12:00:07;;;;;;;15.50;10.70;;;;;;;2.30;100.00;98340.27;112776;1246;22353;-43
2023/11/29 12:02:35;;;;;;;17.80;10.60;;;;;;;2.26;100.00;98338.88;112725;1249;23029;-42
2023/11/29 12:05:05;;;;;;;17.80;11.90;;;;;;;2.22;100.00;98353.67;112051;1249;22415;-49
2023/11/29 12:07:39;;;;;;;17.40;12.00;;;;;;;2.19;100.00;98347.81;112376;1249;23298;-44
2023/11/29 12:10:08;;;;;;;17.50;11.50;;;;;;;2.18;100.00;98350.39;112662;1249;22360;-49
2023/11/29 12:12:36;;;;;;;18.70;12.40;;;;;;;2.17;100.00;98346.61;112427;1249;22948;-49
2023/11/29 12:15:03;;;;;;;24.30;16.40;;;;;;;2.16;100.00;98362.77;112632;1249;22357;-49
2023/11/29 12:17:34;;;;;;;19.40;13.30;;;;;;;2.14;100.00;98361.56;112662;1249;22415;-48
2023/11/29 12:20:06;;;;;;;16.70;11.80;;;;;;;2.13;100.00;98379.27;112486;1249;22677;-49
2023/11/29 12:22:33;;;;;;;17.90;12.90;;;;;;;2.12;100.00;98387.36;112413;1249;23027;-53
2023/11/29 12:25:00;;;;;;;18.00;11.50;;;;;;;2.10;100.00;98399.56;112579;1241;22345;-49
2023/11/29 12:27:27;;;;;;;20.20;12.80;;;;;;;2.08;100.00;98399.72;112694;1249;23640;-49
2023/11/29 12:29:59;;;;;;;18.40;11.90;;;;;;;2.06;100.00;98399.38;112493;1249;22410;-44
2023/11/29 12:32:30;;;;;;;19.10;12.30;;;;;;;2.05;100.00;98411.24;112674;1246;22393;-43
2023/11/29 12:34:57;;;;;;;16.30;11.90;;;;;;;2.02;100.00;98417.93;112576;1248;22363;-43
2023/11/29 12:37:26;;;;;;;17.50;12.50;;;;;;;1.99;100.00;98424.63;112735;1240;22385;-44
2023/11/29 12:39:56;;;;;;;18.40;13.10;;;;;;;1.95;100.00;98427.18;112783;1249;22216;-44
2023/11/29 12:42:25;;;;;;;16.50;10.90;;;;;;;1.92;100.00;98441.78;112780;1249;22408;-44
2023/11/29 12:44:52;;;;;;;19.30;12.20;;;;;;;1.88;100.00;98441.60;112739;1247;22373;-43
2023/11/29 12:47:20;;;;;;;14.90;10.50;;;;;;;1.84;100.00;98456.52;112772;1238;22397;-44
2023/11/29 12:49:47;;;;;;;17.60;11.90;;;;;;;1.81;100.00;98455.84;112762;1249;23259;-44
2023/11/29 12:52:14;;;;;;;16.60;11.90;;;;;;;1.78;100.00;98469.04;112639;1249;22438;-49
2023/11/29 12:54:41;;;;;;;17.70;11.70;;;;;;;1.76;100.00;98485.72;112731;1249;22373;-49
2023/11/29 12:57:08;;;;;;;20.70;12.00;;;;;;;1.72;100.00;98497.72;112726;1241;22665;-49
2023/11/29 12:59:34;;;;;;;18.20;12.50;;;;;;;1.70;100.00;98484.47;111794;1249;22507;-43
2023/11/29 13:02:01;;;;;;;20.90;13.50;;;;;;;1.65;100.00;98498.02;112604;1250;22797;-43
2023/11/29 13:04:31;;;;;;;18.00;12.00;;;;;;;1.63;100.00;98516.21;112668;1247;22549;-49
2023/11/29 13:06:57;;;;;;;17.30;12.10;;;;;;;1.59;100.00;98494.70;112703;1239;23310;-48
2023/11/29 13:09:24;;;;;;;19.60;13.70;;;;;;;1.55;100.00;98494.66;112715;1249;22845;-48
2023/11/29 13:11:53;;;;;;;26.40;13.50;;;;;;;1.51;100.00;98502.04;112573;1248;22513;-43
2023/11/29 13:14:21;;;;;;;20.90;13.70;;;;;;;1.48;100.00;98509.40;112458;1249;22401;-42
2023/11/29 13:16:48;;;;;;;23.90;15.00;;;;;;;1.41;100.00;98529.10;112759;1249;22270;-43
2023/11/29 13:19:14;;;;;;;21.00;14.80;;;;;;;1.38;100.00;98535.25;112551;1249;22612;-50
2023/11/29 13:21:41;;;;;;;18.90;14.70;;;;;;;1.35;100.00;98535.23;112726;1249;23298;-43
2023/11/29 13:24:08;;;;;;;20.60;13.80;;;;;;;1.32;100.00;98548.26;112340;1249;23535;-48
2023/11/29 13:26:37;;;;;;;21.90;15.10;;;;;;;1.30;100.00;98541.89;112522;1249;22809;-48
2023/11/29 13:29:04;;;;;;;21.10;15.10;;;;;;;1.27;99.92;98545.46;112723;1241;22375;-48
2023/11/29 13:31:31;;;;;;;22.10;13.70;;;;;;;1.25;99.80;98540.98;112741;1238;22141;-48
2023/11/29 13:33:59;;;;;;;21.30;14.50;;;;;;;1.24;99.41;98573.62;112772;1249;22421;-49
2023/11/29 13:36:26;;;;;;;20.10;13.90;;;;;;;1.24;98.37;98559.19;112797;1243;22250;-50
2023/11/29 13:38:53;;;;;;;19.90;13.10;;;;;;;1.24;98.14;98559.19;112770;1249;23187;-50
2023/11/29 13:41:20;;;;;;;22.70;15.40;;;;;;;1.25;97.53;98579.98;112834;1238;22230;-49
2023/11/29 13:43:47;;;;;;;19.40;13.30;;;;;;;1.26;97.19;98571.22;112810;1238;23050;-48
2023/11/29 13:46:15;;;;;;;27.80;16.90;;;;;;;1.27;97.99;98559.38;112817;1249;23063;-48
2023/11/29 13:48:41;;;;;;;20.30;14.00;;;;;;;1.26;98.73;98566.23;112830;1246;22937;-49
2023/11/29 13:51:09;;;;;;;22.40;14.50;;;;;;;1.24;99.61;98570.70;112810;1249;23688;-49
2023/11/29 13:53:36;;;;;;;24.10;15.40;;;;;;;1.23;99.49;98572.05;112856;1244;22384;-48
2023/11/29 13:56:03;;;;;;;24.80;16.20;;;;;;;1.21;99.62;98588.86;112849;1249;22401;-48
2023/11/29 13:58:30;;;;;;;22.40;13.20;;;;;;;1.19;98.12;98602.59;112770;1249;22479;-48
2023/11/29 14:00:57;;;;;;;24.30;15.50;;;;;;;1.19;97.74;98598.11;112843;1249;23260;-47
2023/11/29 14:03:24;;;;;;;24.10;14.60;;;;;;;1.19;97.83;98611.52;112857;1249;22375;-49
2023/11/29 14:06:04;;;;;;;21.50;14.40;;;;;;;1.19;98.23;98605.34;111428;1248;22976;-48
2023/11/29 14:08:31;;;;;;;18.40;12.50;;;;;;;1.19;97.96;98615.64;112809;1249;22376;-49
2023/11/29 14:10:58;;;;;;;20.00;12.70;;;;;;;1.20;98.16;98627.84;112867;1249;22363;-49
2023/11/29 14:13:28;;;;;;;19.30;12.50;;;;;;;1.20;98.29;98637.29;112765;1238;22480;-48
2023/11/29 14:15:56;;;;;;;24.50;13.70;;;;;;;1.20;98.65;98661.84;111721;1249;23166;-48
2023/11/29 14:18:22;;;;;;;24.20;16.00;;;;;;;1.19;98.96;98671.46;112911;1249;22183;-49
2023/11/29 14:20:49;;;;;;;20.30;13.10;;;;;;;1.18;99.50;98683.65;112903;1249;22391;-49
2023/11/29 14:23:16;;;;;;;23.00;13.10;;;;;;;1.18;99.95;98675.23;112888;1249;23166;-49
2023/11/29 14:25:43;;;;;;;22.70;16.10;;;;;;;1.18;100.00;98691.73;112478;1249;22487;-49
2023/11/29 14:28:09;;;;;;;19.90;13.50;;;;;;;1.18;100.00;98700.83;111564;1242;25782;-51
2023/11/29 14:30:37;;;;;;;18.10;12.90;;;;;;;1.18;99.72;98712.33;111694;1241;22475;-50
2023/11/29 14:33:04;;;;;;;17.10;12.30;;;;;;;1.19;99.18;98695.67;111842;1249;22428;-50
2023/11/29 14:35:31;;;;;;;21.70;13.90;;;;;;;1.20;99.49;98703.92;110526;1249;22520;-45
2023/11/29 14:37:58;;;;;;;18.20;12.90;;;;;;;1.20;98.91;98704.10;111164;1235;22439;-49
2023/11/29 14:40:24;;;;;;;18.90;13.40;;;;;;;1.20;98.57;98715.96;110226;1249;25499;-51
2023/11/29 14:42:51;;;;;;;22.00;12.70;;;;;;;1.21;98.92;98722.48;110464;1249;22499;-50
2023/11/29 14:45:18;;;;;;;19.40;14.70;;;;;;;1.22;99.13;98734.36;110481;1249;24284;-44
2023/11/29 14:47:46;;;;;;;18.20;13.40;;;;;;;1.21;99.42;98734.36;112235;1249;22562;-49
2023/11/29 14:50:13;;;;;;;20.40;14.70;;;;;;;1.21;99.88;98738.63;111674;1239;24016;-44
2023/11/29 14:52:40;;;;;;;27.40;16.40;;;;;;;1.20;100.00;98743.09;111419;1247;22503;-44
2023/11/29 14:55:07;;;;;;;20.90;15.10;;;;;;;1.17;100.00;98757.66;112914;1249;22305;-49
